sensor_id;sensor_type;location;lat;lon;timestamp;P1;durP1;ratioP1;P2;durP2;ratioP2
14907;SDS011;7545;52.092;7.006;2023-02-28T00:00:17;8.43;;;5.20;;
14907;SDS011;7545;52.092;7.006;2023-02-28T00:02:44;7.90;;;4.63;;
14907;SDS011;7545;52.092;7.006;2023-02-28T00:05:11;7.17;;;4.43;;
14907;SDS011;7545;52.092;7.006;2023-02-28T00:07:38;6.43;;;4.30;;
14907;SDS011;7545;52.092;7.006;2023-02-28T00:10:04;4.93;;;4.20;;
14907;SDS011;7545;52.092;7.006;2023-02-28T00:12:32;5.33;;;4.30;;
14907;SDS011;7545;52.092;7.006;2023-02-28T00:14:59;5.00;;;4.50;;
14907;SDS011;7545;52.092;7.006;2023-02-28T00:17:24;7.30;;;5.23;;
14907;SDS011;7545;52.092;7.006;2023-02-28T00:19:50;6.33;;;4.80;;
14907;SDS011;7545;52.092;7.006;2023-02-28T00:22:17;4.43;;;4.00;;
14907;SDS011;7545;52.092;7.006;2023-02-28T00:24:43;5.67;;;4.87;;
14907;SDS011;7545;52.092;7.006;2023-02-28T00:27:09;5.77;;;4.77;;
14907;SDS011;7545;52.092;7.006;2023-02-28T00:29:35;5.83;;;4.83;;
14907;SDS011;7545;52.092;7.006;2023-02-28T00:32:01;6.93;;;5.30;;
14907;SDS011;7545;52.092;7.006;2023-02-28T00:34:27;5.60;;;4.33;;
14907;SDS011;7545;52.092;7.006;2023-02-28T00:36:53;8.27;;;4.43;;
14907;SDS011;7545;52.092;7.006;2023-02-28T00:39:19;4.83;;;4.33;;
14907;SDS011;7545;52.092;7.006;2023-02-28T00:41:45;5.20;;;4.70;;
14907;SDS011;7545;52.092;7.006;2023-02-28T00:44:10;5.67;;;4.67;;
14907;SDS011;7545;52.092;7.006;2023-02-28T00:46:36;5.63;;;4.33;;
14907;SDS011;7545;52.092;7.006;2023-02-28T00:49:02;6.20;;;5.03;;
14907;SDS011;7545;52.092;7.006;2023-02-28T00:51:27;7.97;;;5.50;;
14907;SDS011;7545;52.092;7.006;2023-02-28T00:53:53;6.20;;;4.60;;
14907;SDS011;7545;52.092;7.006;2023-02-28T00:56:19;7.10;;;5.53;;
14907;SDS011;7545;52.092;7.006;2023-02-28T00:58:44;5.50;;;4.30;;
14907;SDS011;7545;52.092;7.006;2023-02-28T01:01:10;6.53;;;5.17;;
14907;SDS011;7545;52.092;7.006;2023-02-28T01:03:36;6.30;;;4.53;;
14907;SDS011;7545;52.092;7.006;2023-02-28T01:06:01;5.53;;;4.10;;
14907;SDS011;7545;52.092;7.006;2023-02-28T01:08:27;8.90;;;4.70;;
14907;SDS011;7545;52.092;7.006;2023-02-28T01:10:53;10.00;;;5.40;;
14907;SDS011;7545;52.092;7.006;2023-02-28T01:13:19;8.37;;;4.90;;
14907;SDS011;7545;52.092;7.006;2023-02-28T01:15:46;6.47;;;4.90;;
14907;SDS011;7545;52.092;7.006;2023-02-28T01:18:16;6.33;;;4.80;;
14907;SDS011;7545;52.092;7.006;2023-02-28T01:20:42;8.00;;;4.73;;
14907;SDS011;7545;52.092;7.006;2023-02-28T01:23:08;7.37;;;5.17;;
14907;SDS011;7545;52.092;7.006;2023-02-28T01:25:34;5.30;;;4.80;;
14907;SDS011;7545;52.092;7.006;2023-02-28T01:28:01;4.80;;;4.20;;
14907;SDS011;7545;52.092;7.006;2023-02-28T01:30:27;6.83;;;5.37;;
14907;SDS011;7545;52.092;7.006;2023-02-28T01:32:53;6.20;;;4.40;;
14907;SDS011;7545;52.092;7.006;2023-02-28T01:35:19;7.47;;;4.83;;
14907;SDS011;7545;52.092;7.006;2023-02-28T01:37:45;6.13;;;4.20;;
14907;SDS011;7545;52.092;7.006;2023-02-28T01:40:11;6.60;;;4.63;;
14907;SDS011;7545;52.092;7.006;2023-02-28T01:42:37;6.70;;;4.60;;
14907;SDS011;7545;52.092;7.006;2023-02-28T01:45:06;5.00;;;4.50;;
14907;SDS011;7545;52.092;7.006;2023-02-28T01:47:44;6.33;;;4.47;;
14907;SDS011;7545;52.092;7.006;2023-02-28T01:50:14;5.63;;;4.20;;
14907;SDS011;7545;52.092;7.006;2023-02-28T01:52:43;6.47;;;5.13;;
14907;SDS011;7545;52.092;7.006;2023-02-28T01:55:10;8.60;;;5.03;;
14907;SDS011;7545;52.092;7.006;2023-02-28T01:57:38;7.10;;;4.17;;
14907;SDS011;7545;52.092;7.006;2023-02-28T02:00:14;5.97;;;4.50;;
14907;SDS011;7545;52.092;7.006;2023-02-28T02:02:42;8.97;;;4.93;;
14907;SDS011;7545;52.092;7.006;2023-02-28T02:05:15;6.30;;;4.70;;
14907;SDS011;7545;52.092;7.006;2023-02-28T02:07:44;5.67;;;4.47;;
14907;SDS011;7545;52.092;7.006;2023-02-28T02:10:14;8.23;;;5.03;;
14907;SDS011;7545;52.092;7.006;2023-02-28T02:34:51;5.67;;;4.17;;
14907;SDS011;7545;52.092;7.006;2023-02-28T02:37:24;8.67;;;4.73;;
14907;SDS011;7545;52.092;7.006;2023-02-28T02:42:29;5.30;;;4.53;;
14907;SDS011;7545;52.092;7.006;2023-02-28T02:45:56;5.40;;;4.50;;
14907;SDS011;7545;52.092;7.006;2023-02-28T02:48:06;6.27;;;4.10;;
14907;SDS011;7545;52.092;7.006;2023-02-28T02:50:36;6.97;;;4.90;;
14907;SDS011;7545;52.092;7.006;2023-02-28T02:53:11;5.97;;;4.57;;
14907;SDS011;7545;52.092;7.006;2023-02-28T02:55:40;6.00;;;4.13;;
14907;SDS011;7545;52.092;7.006;2023-02-28T02:58:10;6.37;;;4.83;;
14907;SDS011;7545;52.092;7.006;2023-02-28T03:00:42;8.03;;;4.10;;
14907;SDS011;7545;52.092;7.006;2023-02-28T03:03:13;4.20;;;3.33;;
14907;SDS011;7545;52.092;7.006;2023-02-28T03:05:44;5.53;;;4.17;;
14907;SDS011;7545;52.092;7.006;2023-02-28T03:08:15;6.33;;;5.00;;
14907;SDS011;7545;52.092;7.006;2023-02-28T03:10:42;6.87;;;4.40;;
14907;SDS011;7545;52.092;7.006;2023-02-28T03:21:29;6.30;;;4.40;;
14907;SDS011;7545;52.092;7.006;2023-02-28T03:24:09;6.43;;;4.20;;
14907;SDS011;7545;52.092;7.006;2023-02-28T03:26:58;7.10;;;4.87;;
14907;SDS011;7545;52.092;7.006;2023-02-28T03:29:35;6.40;;;4.73;;
14907;SDS011;7545;52.092;7.006;2023-02-28T03:34:48;4.97;;;4.00;;
14907;SDS011;7545;52.092;7.006;2023-02-28T03:37:22;6.63;;;4.57;;
14907;SDS011;7545;52.092;7.006;2023-02-28T03:39:53;8.00;;;4.27;;
14907;SDS011;7545;52.092;7.006;2023-02-28T03:42:27;6.03;;;4.53;;
14907;SDS011;7545;52.092;7.006;2023-02-28T03:52:31;6.00;;;4.57;;
14907;SDS011;7545;52.092;7.006;2023-02-28T03:55:02;5.00;;;4.03;;
14907;SDS011;7545;52.092;7.006;2023-02-28T03:57:34;6.27;;;4.27;;
14907;SDS011;7545;52.092;7.006;2023-02-28T04:00:14;5.43;;;4.33;;
14907;SDS011;7545;52.092;7.006;2023-02-28T04:02:44;5.87;;;4.70;;
14907;SDS011;7545;52.092;7.006;2023-02-28T04:05:10;5.73;;;4.13;;
14907;SDS011;7545;52.092;7.006;2023-02-28T04:07:36;5.77;;;4.13;;
14907;SDS011;7545;52.092;7.006;2023-02-28T04:10:03;5.40;;;4.00;;
14907;SDS011;7545;52.092;7.006;2023-02-28T04:12:29;6.30;;;3.93;;
14907;SDS011;7545;52.092;7.006;2023-02-28T04:14:54;9.80;;;4.53;;
14907;SDS011;7545;52.092;7.006;2023-02-28T04:17:20;5.97;;;4.80;;
14907;SDS011;7545;52.092;7.006;2023-02-28T04:19:46;6.10;;;4.30;;
14907;SDS011;7545;52.092;7.006;2023-02-28T04:22:11;8.43;;;4.93;;
14907;SDS011;7545;52.092;7.006;2023-02-28T04:24:37;7.00;;;4.63;;
14907;SDS011;7545;52.092;7.006;2023-02-28T04:27:06;5.97;;;4.33;;
14907;SDS011;7545;52.092;7.006;2023-02-28T04:29:33;6.73;;;4.47;;
14907;SDS011;7545;52.092;7.006;2023-02-28T04:31:59;5.80;;;4.10;;
14907;SDS011;7545;52.092;7.006;2023-02-28T04:34:26;5.77;;;5.10;;
14907;SDS011;7545;52.092;7.006;2023-02-28T04:36:53;6.03;;;3.80;;
14907;SDS011;7545;52.092;7.006;2023-02-28T04:39:20;6.83;;;4.50;;
14907;SDS011;7545;52.092;7.006;2023-02-28T04:41:46;6.23;;;4.37;;
14907;SDS011;7545;52.092;7.006;2023-02-28T04:44:12;5.47;;;4.33;;
14907;SDS011;7545;52.092;7.006;2023-02-28T04:46:39;7.60;;;4.63;;
14907;SDS011;7545;52.092;7.006;2023-02-28T04:49:04;5.57;;;4.47;;
14907;SDS011;7545;52.092;7.006;2023-02-28T04:51:30;7.73;;;5.03;;
14907;SDS011;7545;52.092;7.006;2023-02-28T04:53:56;8.47;;;4.73;;
14907;SDS011;7545;52.092;7.006;2023-02-28T04:56:22;4.90;;;4.47;;
14907;SDS011;7545;52.092;7.006;2023-02-28T04:58:48;6.20;;;4.23;;
14907;SDS011;7545;52.092;7.006;2023-02-28T05:03:53;6.37;;;4.10;;
14907;SDS011;7545;52.092;7.006;2023-02-28T05:06:20;7.63;;;4.27;;
14907;SDS011;7545;52.092;7.006;2023-02-28T05:08:48;6.37;;;4.47;;
14907;SDS011;7545;52.092;7.006;2023-02-28T05:14:00;4.43;;;3.87;;
14907;SDS011;7545;52.092;7.006;2023-02-28T05:16:26;5.50;;;4.37;;
14907;SDS011;7545;52.092;7.006;2023-02-28T05:18:52;7.70;;;4.33;;
14907;SDS011;7545;52.092;7.006;2023-02-28T05:22:19;5.63;;;4.47;;
14907;SDS011;7545;52.092;7.006;2023-02-28T05:24:17;5.53;;;4.33;;
14907;SDS011;7545;52.092;7.006;2023-02-28T05:26:48;4.80;;;4.00;;
14907;SDS011;7545;52.092;7.006;2023-02-28T05:29:16;6.73;;;4.10;;
14907;SDS011;7545;52.092;7.006;2023-02-28T05:31:42;5.80;;;4.07;;
14907;SDS011;7545;52.092;7.006;2023-02-28T05:34:07;5.30;;;3.80;;
14907;SDS011;7545;52.092;7.006;2023-02-28T05:36:36;5.50;;;4.43;;
14907;SDS011;7545;52.092;7.006;2023-02-28T05:39:01;5.47;;;4.07;;
14907;SDS011;7545;52.092;7.006;2023-02-28T05:41:28;6.10;;;4.03;;
14907;SDS011;7545;52.092;7.006;2023-02-28T05:43:54;4.87;;;3.80;;
14907;SDS011;7545;52.092;7.006;2023-02-28T05:46:19;7.03;;;4.37;;
14907;SDS011;7545;52.092;7.006;2023-02-28T05:48:47;4.57;;;3.87;;
14907;SDS011;7545;52.092;7.006;2023-02-28T05:51:13;6.63;;;4.80;;
14907;SDS011;7545;52.092;7.006;2023-02-28T05:53:39;7.37;;;4.43;;
14907;SDS011;7545;52.092;7.006;2023-02-28T05:56:05;6.93;;;4.77;;
14907;SDS011;7545;52.092;7.006;2023-02-28T05:58:30;10.40;;;4.50;;
14907;SDS011;7545;52.092;7.006;2023-02-28T06:00:57;5.80;;;4.77;;
14907;SDS011;7545;52.092;7.006;2023-02-28T06:03:23;6.93;;;4.77;;
14907;SDS011;7545;52.092;7.006;2023-02-28T06:05:48;7.60;;;4.70;;
14907;SDS011;7545;52.092;7.006;2023-02-28T06:08:15;7.67;;;4.13;;
14907;SDS011;7545;52.092;7.006;2023-02-28T06:10:41;6.90;;;4.40;;
14907;SDS011;7545;52.092;7.006;2023-02-28T06:13:06;7.67;;;4.60;;
14907;SDS011;7545;52.092;7.006;2023-02-28T06:15:32;8.10;;;5.57;;
14907;SDS011;7545;52.092;7.006;2023-02-28T06:17:58;6.27;;;5.10;;
14907;SDS011;7545;52.092;7.006;2023-02-28T06:20:24;6.07;;;4.70;;
14907;SDS011;7545;52.092;7.006;2023-02-28T06:22:54;7.37;;;5.80;;
14907;SDS011;7545;52.092;7.006;2023-02-28T06:25:26;10.13;;;5.60;;
14907;SDS011;7545;52.092;7.006;2023-02-28T06:27:52;8.93;;;5.60;;
14907;SDS011;7545;52.092;7.006;2023-02-28T06:30:19;8.60;;;6.13;;
14907;SDS011;7545;52.092;7.006;2023-02-28T06:32:48;7.50;;;6.03;;
14907;SDS011;7545;52.092;7.006;2023-02-28T06:35:14;10.47;;;6.40;;
14907;SDS011;7545;52.092;7.006;2023-02-28T06:37:40;8.37;;;5.77;;
14907;SDS011;7545;52.092;7.006;2023-02-28T06:40:07;7.50;;;6.03;;
14907;SDS011;7545;52.092;7.006;2023-02-28T06:42:34;8.10;;;6.60;;
14907;SDS011;7545;52.092;7.006;2023-02-28T06:45:00;7.87;;;5.90;;
14907;SDS011;7545;52.092;7.006;2023-02-28T06:47:28;9.70;;;5.53;;
14907;SDS011;7545;52.092;7.006;2023-02-28T06:49:55;9.67;;;5.23;;
14907;SDS011;7545;52.092;7.006;2023-02-28T06:52:21;6.57;;;5.13;;
14907;SDS011;7545;52.092;7.006;2023-02-28T06:54:47;8.83;;;6.07;;
14907;SDS011;7545;52.092;7.006;2023-02-28T06:57:24;6.50;;;4.87;;
14907;SDS011;7545;52.092;7.006;2023-02-28T07:00:00;7.83;;;5.40;;
14907;SDS011;7545;52.092;7.006;2023-02-28T07:02:29;6.97;;;4.80;;
14907;SDS011;7545;52.092;7.006;2023-02-28T07:04:56;8.57;;;4.53;;
14907;SDS011;7545;52.092;7.006;2023-02-28T07:07:22;8.07;;;5.07;;
14907;SDS011;7545;52.092;7.006;2023-02-28T07:09:47;7.20;;;4.97;;
14907;SDS011;7545;52.092;7.006;2023-02-28T07:12:13;7.07;;;4.93;;
14907;SDS011;7545;52.092;7.006;2023-02-28T07:14:39;7.20;;;4.60;;
14907;SDS011;7545;52.092;7.006;2023-02-28T07:17:06;5.93;;;4.83;;
14907;SDS011;7545;52.092;7.006;2023-02-28T07:19:32;8.00;;;4.70;;
14907;SDS011;7545;52.092;7.006;2023-02-28T07:21:58;6.60;;;5.23;;
14907;SDS011;7545;52.092;7.006;2023-02-28T07:24:24;9.53;;;5.27;;
14907;SDS011;7545;52.092;7.006;2023-02-28T07:26:53;5.93;;;4.63;;
14907;SDS011;7545;52.092;7.006;2023-02-28T07:29:18;5.80;;;4.80;;
14907;SDS011;7545;52.092;7.006;2023-02-28T07:31:44;6.67;;;4.70;;
14907;SDS011;7545;52.092;7.006;2023-02-28T07:34:11;9.57;;;5.40;;
14907;SDS011;7545;52.092;7.006;2023-02-28T07:36:37;12.47;;;5.03;;
14907;SDS011;7545;52.092;7.006;2023-02-28T07:39:03;7.47;;;4.83;;
14907;SDS011;7545;52.092;7.006;2023-02-28T07:41:29;7.20;;;5.33;;
14907;SDS011;7545;52.092;7.006;2023-02-28T07:43:58;9.97;;;5.60;;
14907;SDS011;7545;52.092;7.006;2023-02-28T07:46:24;6.20;;;4.87;;
14907;SDS011;7545;52.092;7.006;2023-02-28T07:48:51;8.00;;;5.43;;
14907;SDS011;7545;52.092;7.006;2023-02-28T07:51:18;8.07;;;5.40;;
14907;SDS011;7545;52.092;7.006;2023-02-28T07:53:44;6.83;;;4.90;;
14907;SDS011;7545;52.092;7.006;2023-02-28T07:56:09;8.87;;;4.87;;
14907;SDS011;7545;52.092;7.006;2023-02-28T07:58:35;9.83;;;5.63;;
14907;SDS011;7545;52.092;7.006;2023-02-28T08:01:05;7.27;;;4.60;;
14907;SDS011;7545;52.092;7.006;2023-02-28T08:03:32;8.73;;;5.03;;
14907;SDS011;7545;52.092;7.006;2023-02-28T08:05:58;6.10;;;4.67;;
14907;SDS011;7545;52.092;7.006;2023-02-28T08:08:23;8.00;;;5.00;;
14907;SDS011;7545;52.092;7.006;2023-02-28T08:10:53;5.40;;;3.73;;
14907;SDS011;7545;52.092;7.006;2023-02-28T08:13:18;5.20;;;3.70;;
14907;SDS011;7545;52.092;7.006;2023-02-28T08:15:44;17.40;;;12.47;;
14907;SDS011;7545;52.092;7.006;2023-02-28T08:18:12;145.40;;;66.03;;
14907;SDS011;7545;52.092;7.006;2023-02-28T08:20:37;97.77;;;47.83;;
14907;SDS011;7545;52.092;7.006;2023-02-28T08:23:03;77.40;;;39.37;;
14907;SDS011;7545;52.092;7.006;2023-02-28T08:25:29;35.77;;;20.60;;
14907;SDS011;7545;52.092;7.006;2023-02-28T08:27:54;26.10;;;16.33;;
14907;SDS011;7545;52.092;7.006;2023-02-28T08:30:20;19.43;;;10.27;;
14907;SDS011;7545;52.092;7.006;2023-02-28T08:32:45;11.83;;;5.37;;
14907;SDS011;7545;52.092;7.006;2023-02-28T08:35:11;10.20;;;5.50;;
14907;SDS011;7545;52.092;7.006;2023-02-28T08:37:37;3.97;;;2.73;;
14907;SDS011;7545;52.092;7.006;2023-02-28T08:40:02;3.27;;;2.30;;
14907;SDS011;7545;52.092;7.006;2023-02-28T08:42:29;3.30;;;2.40;;
14907;SDS011;7545;52.092;7.006;2023-02-28T08:44:55;2.33;;;2.13;;
14907;SDS011;7545;52.092;7.006;2023-02-28T08:47:21;4.77;;;1.93;;
14907;SDS011;7545;52.092;7.006;2023-02-28T08:49:47;4.37;;;1.90;;
14907;SDS011;7545;52.092;7.006;2023-02-28T08:52:12;2.13;;;1.83;;
14907;SDS011;7545;52.092;7.006;2023-02-28T08:54:38;3.03;;;1.80;;
14907;SDS011;7545;52.092;7.006;2023-02-28T08:57:04;2.00;;;1.70;;
14907;SDS011;7545;52.092;7.006;2023-02-28T08:59:29;2.77;;;2.13;;
14907;SDS011;7545;52.092;7.006;2023-02-28T09:01:55;2.47;;;1.87;;
14907;SDS011;7545;52.092;7.006;2023-02-28T09:04:21;2.93;;;1.70;;
14907;SDS011;7545;52.092;7.006;2023-02-28T09:06:47;3.37;;;2.27;;
14907;SDS011;7545;52.092;7.006;2023-02-28T09:09:13;3.93;;;2.13;;
14907;SDS011;7545;52.092;7.006;2023-02-28T09:11:39;2.60;;;1.70;;
14907;SDS011;7545;52.092;7.006;2023-02-28T09:14:05;3.87;;;1.67;;
14907;SDS011;7545;52.092;7.006;2023-02-28T09:16:31;2.13;;;1.23;;
14907;SDS011;7545;52.092;7.006;2023-02-28T09:18:57;2.20;;;1.60;;
14907;SDS011;7545;52.092;7.006;2023-02-28T09:21:23;1.47;;;1.20;;
14907;SDS011;7545;52.092;7.006;2023-02-28T09:23:49;3.57;;;1.23;;
14907;SDS011;7545;52.092;7.006;2023-02-28T09:28:45;1.27;;;1.00;;
14907;SDS011;7545;52.092;7.006;2023-02-28T09:31:12;2.10;;;1.67;;
14907;SDS011;7545;52.092;7.006;2023-02-28T09:33:39;2.33;;;1.80;;
14907;SDS011;7545;52.092;7.006;2023-02-28T09:36:06;3.17;;;1.53;;
14907;SDS011;7545;52.092;7.006;2023-02-28T09:38:32;2.37;;;1.70;;
14907;SDS011;7545;52.092;7.006;2023-02-28T09:41:01;2.63;;;1.83;;
14907;SDS011;7545;52.092;7.006;2023-02-28T09:43:34;4.43;;;1.70;;
14907;SDS011;7545;52.092;7.006;2023-02-28T09:49:04;10.30;;;5.57;;
14907;SDS011;7545;52.092;7.006;2023-02-28T09:54:09;5.70;;;3.33;;
14907;SDS011;7545;52.092;7.006;2023-02-28T09:56:44;5.07;;;2.07;;
14907;SDS011;7545;52.092;7.006;2023-02-28T10:16:01;3.30;;;2.10;;
14907;SDS011;7545;52.092;7.006;2023-02-28T10:21:36;3.60;;;2.40;;
14907;SDS011;7545;52.092;7.006;2023-02-28T10:27:00;1.47;;;1.20;;
14907;SDS011;7545;52.092;7.006;2023-02-28T10:29:30;1.87;;;1.20;;
14907;SDS011;7545;52.092;7.006;2023-02-28T10:31:58;1.17;;;1.07;;
14907;SDS011;7545;52.092;7.006;2023-02-28T10:34:26;3.27;;;1.33;;
14907;SDS011;7545;52.092;7.006;2023-02-28T10:36:52;3.67;;;1.20;;
14907;SDS011;7545;52.092;7.006;2023-02-28T10:39:35;1.73;;;1.17;;
14907;SDS011;7545;52.092;7.006;2023-02-28T10:42:18;1.90;;;1.67;;
14907;SDS011;7545;52.092;7.006;2023-02-28T10:45:02;2.53;;;1.57;;
14907;SDS011;7545;52.092;7.006;2023-02-28T10:47:29;3.67;;;2.33;;
14907;SDS011;7545;52.092;7.006;2023-02-28T10:49:56;3.10;;;2.20;;
14907;SDS011;7545;52.092;7.006;2023-02-28T10:55:22;3.10;;;2.30;;
14907;SDS011;7545;52.092;7.006;2023-02-28T10:57:50;2.23;;;1.97;;
14907;SDS011;7545;52.092;7.006;2023-02-28T11:00:18;2.60;;;1.27;;
14907;SDS011;7545;52.092;7.006;2023-02-28T11:02:47;1.33;;;1.03;;
14907;SDS011;7545;52.092;7.006;2023-02-28T11:05:26;3.53;;;1.07;;
14907;SDS011;7545;52.092;7.006;2023-02-28T11:08:10;2.27;;;1.53;;
14907;SDS011;7545;52.092;7.006;2023-02-28T11:10:46;2.83;;;1.77;;
14907;SDS011;7545;52.092;7.006;2023-02-28T11:13:19;1.00;;;0.90;;
14907;SDS011;7545;52.092;7.006;2023-02-28T11:15:53;0.87;;;0.83;;
14907;SDS011;7545;52.092;7.006;2023-02-28T11:18:30;1.70;;;1.00;;
14907;SDS011;7545;52.092;7.006;2023-02-28T11:21:00;4.70;;;3.40;;
14907;SDS011;7545;52.092;7.006;2023-02-28T11:23:27;2.80;;;1.70;;
14907;SDS011;7545;52.092;7.006;2023-02-28T11:25:56;1.17;;;1.07;;
14907;SDS011;7545;52.092;7.006;2023-02-28T11:28:26;1.73;;;1.33;;
14907;SDS011;7545;52.092;7.006;2023-02-28T11:36:24;2.20;;;1.37;;
14907;SDS011;7545;52.092;7.006;2023-02-28T11:38:52;2.67;;;1.10;;
14907;SDS011;7545;52.092;7.006;2023-02-28T11:41:23;1.13;;;0.97;;
14907;SDS011;7545;52.092;7.006;2023-02-28T11:47:00;1.10;;;1.00;;
14907;SDS011;7545;52.092;7.006;2023-02-28T11:49:44;1.20;;;0.83;;
14907;SDS011;7545;52.092;7.006;2023-02-28T11:55:12;1.67;;;0.93;;
14907;SDS011;7545;52.092;7.006;2023-02-28T12:11:52;3.00;;;1.10;;
14907;SDS011;7545;52.092;7.006;2023-02-28T12:20:05;0.87;;;0.83;;
14907;SDS011;7545;52.092;7.006;2023-02-28T12:22:48;2.83;;;1.10;;
14907;SDS011;7545;52.092;7.006;2023-02-28T12:28:24;2.27;;;1.03;;
14907;SDS011;7545;52.092;7.006;2023-02-28T12:31:14;5.47;;;2.47;;
14907;SDS011;7545;52.092;7.006;2023-02-28T12:33:53;9.10;;;4.70;;
14907;SDS011;7545;52.092;7.006;2023-02-28T12:36:25;10.47;;;5.50;;
14907;SDS011;7545;52.092;7.006;2023-02-28T12:38:54;10.37;;;5.33;;
14907;SDS011;7545;52.092;7.006;2023-02-28T12:46:50;1.20;;;1.10;;
14907;SDS011;7545;52.092;7.006;2023-02-28T12:51:56;1.40;;;1.10;;
14907;SDS011;7545;52.092;7.006;2023-02-28T12:57:06;1.90;;;1.27;;
14907;SDS011;7545;52.092;7.006;2023-02-28T13:06:05;3.87;;;1.20;;
14907;SDS011;7545;52.092;7.006;2023-02-28T13:09:04;2.80;;;1.30;;
14907;SDS011;7545;52.092;7.006;2023-02-28T13:11:52;1.57;;;1.27;;
14907;SDS011;7545;52.092;7.006;2023-02-28T13:19:35;3.53;;;1.53;;
14907;SDS011;7545;52.092;7.006;2023-02-28T13:24:51;1.57;;;1.47;;
14907;SDS011;7545;52.092;7.006;2023-02-28T13:29:43;2.40;;;1.50;;
14907;SDS011;7545;52.092;7.006;2023-02-28T13:42:35;1.92;;;1.75;;
14907;SDS011;7545;52.092;7.006;2023-02-28T13:47:40;5.13;;;1.83;;
14907;SDS011;7545;52.092;7.006;2023-02-28T13:50:28;1.38;;;1.23;;
14907;SDS011;7545;52.092;7.006;2023-02-28T13:55:46;1.50;;;1.30;;
14907;SDS011;7545;52.092;7.006;2023-02-28T14:07:20;2.28;;;1.10;;
14907;SDS011;7545;52.092;7.006;2023-02-28T14:10:03;1.40;;;1.30;;
14907;SDS011;7545;52.092;7.006;2023-02-28T14:12:52;1.85;;;1.40;;
14907;SDS011;7545;52.092;7.006;2023-02-28T14:15:27;3.88;;;1.33;;
14907;SDS011;7545;52.092;7.006;2023-02-28T14:20:41;2.47;;;1.33;;
14907;SDS011;7545;52.092;7.006;2023-02-28T14:25:54;6.43;;;3.85;;
14907;SDS011;7545;52.092;7.006;2023-02-28T14:29:36;2.45;;;2.03;;
14907;SDS011;7545;52.092;7.006;2023-02-28T14:37:41;1.58;;;1.48;;
14907;SDS011;7545;52.092;7.006;2023-02-28T14:40:15;1.50;;;1.20;;
14907;SDS011;7545;52.092;7.006;2023-02-28T14:42:47;2.08;;;1.45;;
14907;SDS011;7545;52.092;7.006;2023-02-28T14:45:19;3.47;;;1.67;;
14907;SDS011;7545;52.092;7.006;2023-02-28T14:47:46;1.70;;;1.00;;
14907;SDS011;7545;52.092;7.006;2023-02-28T14:50:17;2.53;;;1.70;;
14907;SDS011;7545;52.092;7.006;2023-02-28T14:52:50;1.80;;;1.43;;
14907;SDS011;7545;52.092;7.006;2023-02-28T14:55:18;1.52;;;1.40;;
14907;SDS011;7545;52.092;7.006;2023-02-28T14:57:51;1.70;;;1.60;;
14907;SDS011;7545;52.092;7.006;2023-02-28T15:02:49;2.80;;;2.22;;
14907;SDS011;7545;52.092;7.006;2023-02-28T15:05:19;2.20;;;1.70;;
14907;SDS011;7545;52.092;7.006;2023-02-28T15:10:39;3.83;;;2.47;;
14907;SDS011;7545;52.092;7.006;2023-02-28T15:13:10;2.37;;;1.60;;
14907;SDS011;7545;52.092;7.006;2023-02-28T15:21:11;2.90;;;1.67;;
14907;SDS011;7545;52.092;7.006;2023-02-28T15:23:41;2.25;;;1.20;;
14907;SDS011;7545;52.092;7.006;2023-02-28T15:26:19;2.23;;;1.10;;
14907;SDS011;7545;52.092;7.006;2023-02-28T15:28:51;1.40;;;1.30;;
14907;SDS011;7545;52.092;7.006;2023-02-28T15:31:29;1.73;;;1.30;;
14907;SDS011;7545;52.092;7.006;2023-02-28T15:33:58;2.47;;;1.70;;
14907;SDS011;7545;52.092;7.006;2023-02-28T15:36:30;2.37;;;1.43;;
14907;SDS011;7545;52.092;7.006;2023-02-28T15:38:58;3.65;;;1.77;;
14907;SDS011;7545;52.092;7.006;2023-02-28T15:41:25;2.67;;;1.80;;
14907;SDS011;7545;52.092;7.006;2023-02-28T15:44:16;10.10;;;5.00;;
14907;SDS011;7545;52.092;7.006;2023-02-28T15:46:53;29.17;;;14.67;;
14907;SDS011;7545;52.092;7.006;2023-02-28T15:49:24;8.93;;;5.00;;
14907;SDS011;7545;52.092;7.006;2023-02-28T15:51:51;4.53;;;3.57;;
14907;SDS011;7545;52.092;7.006;2023-02-28T15:54:20;3.17;;;2.20;;
14907;SDS011;7545;52.092;7.006;2023-02-28T15:56:53;2.20;;;2.00;;
14907;SDS011;7545;52.092;7.006;2023-02-28T15:59:25;2.33;;;2.07;;
14907;SDS011;7545;52.092;7.006;2023-02-28T16:02:53;2.20;;;2.00;;
14907;SDS011;7545;52.092;7.006;2023-02-28T16:05:00;3.23;;;1.60;;
14907;SDS011;7545;52.092;7.006;2023-02-28T16:07:32;3.17;;;2.10;;
14907;SDS011;7545;52.092;7.006;2023-02-28T16:10:03;3.33;;;2.57;;
14907;SDS011;7545;52.092;7.006;2023-02-28T16:12:30;1.70;;;1.57;;
14907;SDS011;7545;52.092;7.006;2023-02-28T16:15:01;3.87;;;2.70;;
14907;SDS011;7545;52.092;7.006;2023-02-28T16:17:34;2.97;;;2.40;;
14907;SDS011;7545;52.092;7.006;2023-02-28T16:20:05;4.23;;;2.70;;
14907;SDS011;7545;52.092;7.006;2023-02-28T16:22:41;2.60;;;2.27;;
14907;SDS011;7545;52.092;7.006;2023-02-28T16:25:11;3.90;;;2.40;;
14907;SDS011;7545;52.092;7.006;2023-02-28T16:27:40;2.23;;;1.87;;
14907;SDS011;7545;52.092;7.006;2023-02-28T16:30:09;2.97;;;1.90;;
14907;SDS011;7545;52.092;7.006;2023-02-28T16:32:58;2.80;;;2.07;;
14907;SDS011;7545;52.092;7.006;2023-02-28T16:35:24;7.30;;;3.43;;
14907;SDS011;7545;52.092;7.006;2023-02-28T16:37:51;2.97;;;2.20;;
14907;SDS011;7545;52.092;7.006;2023-02-28T16:40:21;5.37;;;2.73;;
14907;SDS011;7545;52.092;7.006;2023-02-28T16:42:49;9.40;;;4.10;;
14907;SDS011;7545;52.092;7.006;2023-02-28T16:45:17;6.73;;;4.67;;
14907;SDS011;7545;52.092;7.006;2023-02-28T16:47:45;6.47;;;4.27;;
14907;SDS011;7545;52.092;7.006;2023-02-28T16:50:22;6.57;;;3.30;;
14907;SDS011;7545;52.092;7.006;2023-02-28T16:52:49;1.70;;;1.60;;
14907;SDS011;7545;52.092;7.006;2023-02-28T16:55:17;4.87;;;3.37;;
14907;SDS011;7545;52.092;7.006;2023-02-28T16:57:42;3.90;;;2.93;;
14907;SDS011;7545;52.092;7.006;2023-02-28T17:00:11;4.10;;;3.00;;
14907;SDS011;7545;52.092;7.006;2023-02-28T17:02:38;8.10;;;5.00;;
14907;SDS011;7545;52.092;7.006;2023-02-28T17:05:04;13.40;;;7.80;;
14907;SDS011;7545;52.092;7.006;2023-02-28T17:07:31;10.53;;;6.73;;
14907;SDS011;7545;52.092;7.006;2023-02-28T17:09:57;7.23;;;4.73;;
14907;SDS011;7545;52.092;7.006;2023-02-28T17:12:23;6.97;;;3.57;;
14907;SDS011;7545;52.092;7.006;2023-02-28T17:14:48;6.77;;;3.67;;
14907;SDS011;7545;52.092;7.006;2023-02-28T17:17:18;3.53;;;2.83;;
14907;SDS011;7545;52.092;7.006;2023-02-28T17:19:46;4.90;;;2.30;;
14907;SDS011;7545;52.092;7.006;2023-02-28T17:22:12;2.80;;;2.03;;
14907;SDS011;7545;52.092;7.006;2023-02-28T17:24:38;4.37;;;2.30;;
14907;SDS011;7545;52.092;7.006;2023-02-28T17:27:04;4.30;;;2.87;;
14907;SDS011;7545;52.092;7.006;2023-02-28T17:29:30;5.07;;;3.00;;
14907;SDS011;7545;52.092;7.006;2023-02-28T17:31:55;5.17;;;2.50;;
14907;SDS011;7545;52.092;7.006;2023-02-28T17:34:21;4.27;;;2.30;;
14907;SDS011;7545;52.092;7.006;2023-02-28T17:36:48;4.50;;;3.57;;
14907;SDS011;7545;52.092;7.006;2023-02-28T17:39:15;3.73;;;2.33;;
14907;SDS011;7545;52.092;7.006;2023-02-28T17:41:52;3.03;;;2.50;;
14907;SDS011;7545;52.092;7.006;2023-02-28T17:44:18;3.27;;;2.20;;
14907;SDS011;7545;52.092;7.006;2023-02-28T17:46:45;2.43;;;1.90;;
14907;SDS011;7545;52.092;7.006;2023-02-28T17:49:10;3.33;;;2.43;;
14907;SDS011;7545;52.092;7.006;2023-02-28T17:51:36;3.27;;;2.20;;
14907;SDS011;7545;52.092;7.006;2023-02-28T17:54:02;2.10;;;1.83;;
14907;SDS011;7545;52.092;7.006;2023-02-28T17:56:28;3.27;;;1.77;;
14907;SDS011;7545;52.092;7.006;2023-02-28T17:58:54;3.73;;;2.07;;
14907;SDS011;7545;52.092;7.006;2023-02-28T18:01:21;3.00;;;2.30;;
14907;SDS011;7545;52.092;7.006;2023-02-28T18:03:49;3.87;;;1.90;;
14907;SDS011;7545;52.092;7.006;2023-02-28T18:06:16;8.80;;;4.77;;
14907;SDS011;7545;52.092;7.006;2023-02-28T18:08:50;17.53;;;10.90;;
14907;SDS011;7545;52.092;7.006;2023-02-28T18:11:17;9.40;;;7.67;;
14907;SDS011;7545;52.092;7.006;2023-02-28T18:13:44;8.13;;;6.10;;
14907;SDS011;7545;52.092;7.006;2023-02-28T18:16:14;11.73;;;6.10;;
14907;SDS011;7545;52.092;7.006;2023-02-28T18:18:40;12.50;;;7.10;;
14907;SDS011;7545;52.092;7.006;2023-02-28T18:21:07;8.80;;;5.60;;
14907;SDS011;7545;52.092;7.006;2023-02-28T18:23:34;5.37;;;3.83;;